Time;durP1;ratioP1;P1;durP2;ratioP2;P2;SDS_P1;SDS_P2;PMS_P1;PMS_P2;Temp;Humidity;BMP_temperature;BMP_pressure;BME280_temperature;BME280_humidity;BME280_pressure;Samples;Min_cycle;Max_cycle;Signal;HPM_P1;HPM_P2
2023/01/27 04:08:00;;;;;;;1.98;1.35;;;14.70;48.90;;;;;;4906454;28;45608;-63
2023/01/27 04:10:25;;;;;;;1.58;1.38;;;14.70;48.90;;;;;;4915440;28;45565;-63
2023/01/27 04:12:51;;;;;;;2.05;1.33;;;14.70;48.90;;;;;;4914376;28;45652;-61
2023/01/27 04:15:17;;;;;;;3.30;1.40;;;14.70;49.00;;;;;;4911778;28;45882;-66
2023/01/27 04:17:42;;;;;;;1.75;1.40;;;14.70;49.00;;;;;;4911072;28;45605;-63
2023/01/27 04:20:08;;;;;;;2.00;1.33;;;14.60;48.90;;;;;;4909413;28;44909;-64
2023/01/27 04:22:34;;;;;;;1.98;1.30;;;14.60;49.00;;;;;;4907822;28;46801;-61
2023/01/27 04:24:59;;;;;;;1.83;1.42;;;14.60;48.90;;;;;;4910323;28;45475;-64
2023/01/27 04:27:26;;;;;;;1.45;1.27;;;14.60;49.00;;;;;;4906618;28;45502;-66
2023/01/27 04:29:51;;;;;;;1.63;1.25;;;14.60;49.00;;;;;;4902855;28;45131;-66
2023/01/27 04:32:17;;;;;;;2.05;1.55;;;14.60;49.00;;;;;;4902301;28;46330;-67
2023/01/27 04:34:42;;;;;;;2.05;1.60;;;14.60;49.00;;;;;;4914950;28;46385;-60
2023/01/27 04:37:08;;;;;;;2.42;1.60;;;14.60;48.90;;;;;;4909829;28;44678;-62
2023/01/27 04:39:34;;;;;;;2.15;1.42;;;14.60;49.00;;;;;;4910922;28;45698;-65
2023/01/27 04:41:59;;;;;;;2.55;1.48;;;14.60;49.00;;;;;;4908167;28;45271;-62
2023/01/27 04:44:25;;;;;;;1.45;1.25;;;14.60;49.00;;;;;;4909984;28;46692;-63
2023/01/27 04:46:51;;;;;;;2.22;1.40;;;14.60;49.00;;;;;;4907100;28;45411;-63
2023/01/27 04:49:16;;;;;;;2.20;1.50;;;14.50;49.00;;;;;;4889460;28;44810;-65
2023/01/27 04:51:42;;;;;;;2.03;1.50;;;14.50;49.00;;;;;;4894752;28;45818;-61
2023/01/27 04:54:08;;;;;;;2.78;1.70;;;14.50;48.90;;;;;;4907934;28;47112;-62
2023/01/27 04:56:35;;;;;;;1.70;1.40;;;14.50;49.00;;;;;;4906468;28;45236;-61
2023/01/27 04:59:02;;;;;;;2.15;1.65;;;14.50;49.00;;;;;;4911659;28;45311;-64
2023/01/27 05:01:28;;;;;;;2.15;1.45;;;14.50;49.00;;;;;;4874599;28;45550;-61
2023/01/27 05:03:53;;;;;;;1.65;1.25;;;14.40;49.00;;;;;;4891324;28;46902;-62
2023/01/27 05:06:19;;;;;;;1.85;1.10;;;14.40;49.00;;;;;;4909389;28;44906;-62
2023/01/27 05:08:45;;;;;;;1.23;0.98;;;14.50;49.10;;;;;;4896085;28;45418;-66
2023/01/27 05:11:10;;;;;;;1.58;1.33;;;14.40;49.00;;;;;;4908495;28;45247;-66
2023/01/27 05:13:36;;;;;;;1.60;1.38;;;14.40;49.10;;;;;;4891212;28;45832;-63
2023/01/27 05:16:06;;;;;;;2.03;1.40;;;14.40;49.00;;;;;;4904893;28;45251;-64
2023/01/27 05:18:32;;;;;;;2.35;1.42;;;14.40;49.10;;;;;;4903686;28;45137;-63
2023/01/27 05:20:59;;;;;;;2.95;1.55;;;14.40;49.10;;;;;;4907947;28;45429;-64
2023/01/27 05:23:34;;;;;;;2.38;1.40;;;14.40;49.00;;;;;;4907930;28;45346;-63
2023/01/27 05:26:20;;;;;;;2.10;1.33;;;14.40;49.00;;;;;;4908569;28;45791;-63
2023/01/27 05:28:46;;;;;;;2.63;1.40;;;14.30;49.00;;;;;;4877187;28;45357;-62
2023/01/27 05:31:13;;;;;;;1.73;1.30;;;14.40;49.10;;;;;;4907398;28;45439;-61
2023/01/27 05:33:39;;;;;;;1.40;1.15;;;14.30;49.10;;;;;;4895432;28;46251;-62
2023/01/27 05:36:05;;;;;;;1.95;1.50;;;14.30;49.10;;;;;;4908290;28;45305;-62
2023/01/27 05:38:31;;;;;;;1.75;1.33;;;14.30;49.00;;;;;;4904526;28;45159;-61
2023/01/27 05:41:04;;;;;;;1.98;1.48;;;14.30;49.10;;;;;;4906886;28;44978;-63
2023/01/27 05:43:30;;;;;;;2.05;1.40;;;14.30;49.10;;;;;;4891623;28;46816;-61
2023/01/27 05:46:07;;;;;;;1.55;1.25;;;14.30;49.10;;;;;;4909744;28;44984;-63
2023/01/27 05:48:34;;;;;;;1.70;1.23;;;14.30;49.10;;;;;;4890114;28;45170;-61
2023/01/27 05:50:59;;;;;;;1.63;1.40;;;14.30;49.10;;;;;;4908651;28;45314;-62
2023/01/27 05:53:25;;;;;;;1.40;1.17;;;14.30;49.10;;;;;;4907250;28;45974;-64
2023/01/27 05:55:51;;;;;;;1.85;1.30;;;14.30;49.10;;;;;;4908362;28;45129;-62
2023/01/27 05:58:17;;;;;;;2.35;1.35;;;14.20;49.00;;;;;;4907568;28;45444;-64
2023/01/27 06:00:43;;;;;;;1.40;1.30;;;14.20;49.10;;;;;;4911103;28;44856;-62
2023/01/27 06:03:08;;;;;;;1.77;1.48;;;14.20;49.10;;;;;;4909392;28;45421;-64
2023/01/27 06:05:34;;;;;;;3.20;1.70;;;14.30;49.10;;;;;;4895669;28;45292;-63
2023/01/27 06:07:59;;;;;;;1.58;1.30;;;14.20;49.10;;;;;;4906309;28;45554;-61
2023/01/27 06:10:25;;;;;;;1.50;1.33;;;14.20;49.20;;;;;;4907000;28;45264;-63
2023/01/27 06:12:50;;;;;;;1.70;1.27;;;14.20;49.20;;;;;;4905427;28;46397;-63
2023/01/27 06:15:17;;;;;;;1.65;1.45;;;14.20;49.20;;;;;;4903296;28;46187;-64
2023/01/27 06:17:42;;;;;;;2.35;1.38;;;14.20;49.20;;;;;;4907390;28;45087;-63
2023/01/27 06:20:10;;;;;;;1.48;1.20;;;14.20;49.20;;;;;;4908945;28;45500;-62
2023/01/27 06:22:36;;;;;;;1.92;1.27;;;14.10;49.10;;;;;;4912514;28;45356;-63
2023/01/27 06:25:01;;;;;;;2.15;1.30;;;14.20;49.20;;;;;;4911167;28;45248;-60
2023/01/27 06:27:27;;;;;;;2.00;1.55;;;14.10;49.20;;;;;;4889566;28;45611;-64
2023/01/27 06:29:52;;;;;;;1.58;1.15;;;14.10;49.20;;;;;;4906046;28;45122;-60
2023/01/27 06:32:18;;;;;;;2.25;1.60;;;14.10;49.20;;;;;;4907092;28;47055;-64
2023/01/27 06:34:43;;;;;;;1.95;1.40;;;14.10;49.20;;;;;;4908925;28;44655;-62
2023/01/27 06:37:09;;;;;;;1.90;1.40;;;14.10;49.20;;;;;;4907552;28;45475;-62
2023/01/27 06:39:34;;;;;;;1.35;1.25;;;14.10;49.20;;;;;;4906057;28;46740;-65
2023/01/27 06:42:00;;;;;;;2.25;1.33;;;14.10;49.20;;;;;;4905306;28;45592;-63
2023/01/27 06:44:25;;;;;;;1.70;1.27;;;14.10;49.10;;;;;;4906653;28;45223;-62
2023/01/27 06:46:52;;;;;;;1.60;1.20;;;14.10;49.20;;;;;;4903253;28;45209;-64
2023/01/27 06:49:18;;;;;;;3.67;2.33;;;14.10;49.20;;;;;;4907237;28;45144;-62
2023/01/27 06:51:43;;;;;;;5.60;4.03;;;14.00;48.20;;;;;;4892086;28;47121;-61
2023/01/27 06:54:09;;;;;;;10.73;5.05;;;13.80;45.70;;;;;;4903617;28;45503;-61
2023/01/27 06:56:34;;;;;;;7.20;4.90;;;13.60;44.80;;;;;;4909155;28;45896;-61
2023/01/27 06:59:00;;;;;;;7.35;5.10;;;13.40;45.20;;;;;;4909809;28;45309;-63
2023/01/27 07:01:26;;;;;;;6.57;4.22;;;13.40;45.40;;;;;;4908537;28;45367;-61
2023/01/27 07:03:52;;;;;;;4.53;3.55;;;13.50;45.70;;;;;;4903143;28;45356;-57
2023/01/27 07:06:19;;;;;;;4.35;3.47;;;13.60;46.30;;;;;;4885254;28;45613;-66
2023/01/27 07:08:45;;;;;;;4.28;2.92;;;13.80;46.30;;;;;;4907382;28;45540;-61
2023/01/27 07:11:11;;;;;;;3.72;3.13;;;14.00;46.00;;;;;;4909849;28;45328;-59
2023/01/27 07:13:37;;;;;;;3.78;3.00;;;14.20;45.80;;;;;;4913160;28;44960;-60
2023/01/27 07:16:02;;;;;;;3.47;2.65;;;14.40;45.50;;;;;;4903220;28;45440;-62
2023/01/27 07:18:28;;;;;;;3.22;2.70;;;14.60;45.30;;;;;;4903296;28;45140;-59
2023/01/27 07:20:53;;;;;;;3.88;2.60;;;14.80;45.20;;;;;;4905762;28;45311;-60
2023/01/27 07:23:19;;;;;;;2.88;2.20;;;15.00;45.00;;;;;;4905176;28;45219;-63
2023/01/27 07:25:45;;;;;;;2.95;2.03;;;15.20;44.90;;;;;;4908634;28;45132;-60
2023/01/27 07:28:10;;;;;;;2.63;2.05;;;15.30;44.80;;;;;;4912523;28;45448;-59
2023/01/27 07:30:37;;;;;;;2.22;1.70;;;15.40;44.70;;;;;;4908554;28;45334;-60
2023/01/27 07:33:10;;;;;;;2.78;1.70;;;15.60;44.60;;;;;;4896631;28;45602;-59
2023/01/27 07:35:36;;;;;;;2.17;1.65;;;15.60;44.50;;;;;;4913110;28;44912;-60
2023/01/27 07:38:02;;;;;;;2.45;1.95;;;15.70;44.70;;;;;;4913461;28;45274;-60
2023/01/27 07:40:27;;;;;;;2.22;1.58;;;15.70;44.70;;;;;;4907590;28;47192;-61
2023/01/27 07:42:56;;;;;;;3.08;1.55;;;15.90;44.70;;;;;;4906906;28;45428;-62
2023/01/27 07:45:21;;;;;;;3.08;1.40;;;16.00;44.70;;;;;;4904853;28;44795;-60
2023/01/27 07:47:47;;;;;;;2.67;1.80;;;16.20;44.60;;;;;;4909355;28;45167;-61
2023/01/27 07:50:12;;;;;;;1.83;1.42;;;16.30;44.40;;;;;;4907424;28;45410;-60
2023/01/27 07:52:38;;;;;;;1.52;1.38;;;16.50;44.30;;;;;;4912740;28;45007;-60
2023/01/27 07:55:04;;;;;;;1.40;1.17;;;16.60;44.30;;;;;;4910205;28;44881;-59
2023/01/27 07:57:29;;;;;;;1.20;1.10;;;16.80;44.20;;;;;;4901762;28;45657;-60
2023/01/27 07:59:55;;;;;;;1.58;1.17;;;16.90;44.10;;;;;;4911582;28;45110;-60
2023/01/27 08:02:24;;;;;;;1.80;1.33;;;17.10;44.00;;;;;;4903056;28;45377;-60
2023/01/27 08:04:50;;;;;;;1.77;1.30;;;17.20;43.90;;;;;;4896643;28;45568;-59
2023/01/27 08:07:16;;;;;;;1.20;1.00;;;17.30;43.90;;;;;;4912897;28;45403;-61
2023/01/27 08:09:42;;;;;;;1.27;1.17;;;17.50;43.80;;;;;;4908590;28;45969;-60
2023/01/27 08:12:07;;;;;;;1.35;1.20;;;17.60;43.70;;;;;;4909470;28;45194;-59
2023/01/27 08:14:33;;;;;;;2.00;1.13;;;17.70;44.30;;;;;;4911555;28;44783;-61
2023/01/27 08:16:58;;;;;;;1.67;1.27;;;17.70;43.60;;;;;;4913677;28;45493;-61
2023/01/27 08:19:24;;;;;;;1.63;1.30;;;17.70;43.70;;;;;;4912918;28;45416;-60
2023/01/27 08:21:49;;;;;;;2.28;1.20;;;17.70;43.80;;;;;;4910444;28;45616;-60
2023/01/27 08:24:15;;;;;;;1.73;1.10;;;17.80;43.90;;;;;;4908768;28;45294;-61
2023/01/27 08:26:40;;;;;;;1.70;1.27;;;18.00;43.80;;;;;;4912521;28;45071;-61
2023/01/27 08:29:06;;;;;;;1.50;1.15;;;18.10;43.70;;;;;;4913233;28;45754;-66
2023/01/27 08:31:31;;;;;;;1.17;1.08;;;18.30;43.60;;;;;;4915609;28;44699;-60
2023/01/27 08:33:57;;;;;;;1.58;1.30;;;18.40;43.40;;;;;;4913125;28;45629;-64
2023/01/27 08:36:22;;;;;;;2.15;1.23;;;18.50;43.30;;;;;;4911300;28;45207;-60
2023/01/27 08:38:48;;;;;;;1.45;1.20;;;18.60;43.20;;;;;;4908866;28;45440;-63
2023/01/27 08:41:19;;;;;;;1.48;1.17;;;18.80;43.20;;;;;;4915309;28;45539;-62
2023/01/27 08:43:44;;;;;;;1.88;1.17;;;18.90;43.10;;;;;;4916952;28;45507;-62
2023/01/27 08:46:10;;;;;;;1.10;1.00;;;19.00;43.10;;;;;;4912044;28;45161;-62
2023/01/27 08:48:36;;;;;;;3.17;1.02;;;19.10;42.80;;;;;;4908701;28;45941;-60
2023/01/27 08:51:02;;;;;;;1.30;1.00;;;19.20;42.80;;;;;;4909156;28;45276;-63
2023/01/27 08:53:27;;;;;;;1.48;1.02;;;19.30;42.80;;;;;;4911936;28;45271;-62
2023/01/27 08:55:55;;;;;;;1.35;0.93;;;19.50;42.70;;;;;;4890355;28;45718;-61
2023/01/27 08:58:21;;;;;;;1.20;0.90;;;19.50;42.60;;;;;;4909056;28;47134;-62
2023/01/27 09:00:46;;;;;;;1.15;0.93;;;19.50;42.70;;;;;;4910560;28;44811;-61
2023/01/27 09:03:12;;;;;;;1.23;0.95;;;19.50;42.80;;;;;;4913235;28;45630;-63
2023/01/27 09:05:38;;;;;;;1.08;0.88;;;19.60;42.80;;;;;;4910164;28;45478;-62
2023/01/27 09:08:04;;;;;;;1.27;1.13;;;19.70;42.80;;;;;;4909966;28;46375;-63
2023/01/27 09:10:30;;;;;;;0.80;0.80;;;19.80;42.70;;;;;;4896543;28;45668;-63
2023/01/27 09:12:56;;;;;;;1.30;0.80;;;19.90;42.50;;;;;;4908080;28;45338;-62
2023/01/27 09:15:21;;;;;;;1.42;1.10;;;20.00;42.50;;;;;;4893533;28;45348;-65
2023/01/27 09:17:47;;;;;;;1.10;0.70;;;20.10;42.50;;;;;;4906114;28;47999;-63
2023/01/27 09:20:12;;;;;;;0.85;0.80;;;20.20;42.30;;;;;;4911078;28;45188;-63
2023/01/27 09:22:39;;;;;;;0.82;0.80;;;20.40;42.20;;;;;;4907353;28;44677;-63
2023/01/27 09:25:06;;;;;;;0.80;0.80;;;20.50;42.20;;;;;;4910379;28;45311;-62
2023/01/27 09:27:32;;;;;;;1.05;0.80;;;20.60;42.10;;;;;;4906738;28;46545;-62
2023/01/27 09:29:57;;;;;;;2.38;0.80;;;20.70;42.00;;;;;;4905114;28;44949;-63
2023/01/27 09:32:23;;;;;;;0.95;0.95;;;20.80;42.00;;;;;;4908434;28;45719;-62
2023/01/27 09:34:48;;;;;;;0.85;0.80;;;20.80;41.90;;;;;;4911021;28;44953;-63
2023/01/27 09:37:14;;;;;;;0.88;0.80;;;20.90;41.80;;;;;;4904508;28;45378;-62
2023/01/27 09:39:48;;;;;;;2.65;0.90;;;21.00;41.70;;;;;;4908317;28;45982;-61
2023/01/27 09:42:31;;;;;;;1.10;0.93;;;21.10;41.60;;;;;;4909528;28;45318;-61
2023/01/27 09:45:18;;;;;;;0.88;0.82;;;21.10;41.50;;;;;;4909675;28;45463;-63
2023/01/27 09:47:52;;;;;;;1.52;1.00;;;21.10;41.80;;;;;;4908766;28;46977;-65
2023/01/27 09:50:37;;;;;;;0.80;0.80;;;21.10;41.80;;;;;;4905994;28;45056;-63
2023/01/27 09:53:46;;;;;;;0.75;0.75;;;21.20;41.90;;;;;;4902422;28;44763;-61
2023/01/27 09:56:28;;;;;;;0.98;0.73;;;21.30;41.60;;;;;;4855511;29;44973;-62
2023/01/27 09:59:12;;;;;;;0.70;0.70;;;21.40;41.40;;;;;;4854647;29;45647;-63
2023/01/27 10:01:48;;;;;;;0.73;0.70;;;21.50;41.30;;;;;;4877707;28;45791;-62
2023/01/27 10:04:20;;;;;;;0.88;0.80;;;21.60;41.30;;;;;;4905847;28;45104;-62
2023/01/27 10:07:03;;;;;;;1.08;0.73;;;21.80;41.40;;;;;;4906533;28;45642;-62
2023/01/27 10:09:48;;;;;;;1.25;0.80;;;21.80;40.90;;;;;;4899250;28;46212;-64
2023/01/27 10:12:22;;;;;;;0.70;0.70;;;21.90;41.30;;;;;;4906514;28;45167;-61
2023/01/27 10:14:55;;;;;;;0.60;0.60;;;21.90;41.20;;;;;;4904114;28;45367;-65
2023/01/27 10:17:30;;;;;;;;;;;22.00;41.20;;;;;;4903987;28;45423;-64
2023/01/27 10:20:17;;;;;;;0.65;0.65;;;22.10;40.60;;;;;;4900676;28;46153;-61
2023/01/27 10:23:01;;;;;;;0.50;0.50;;;22.20;41.20;;;;;;4907433;28;45766;-61
2023/01/27 10:25:32;;;;;;;0.63;0.50;;;22.30;40.80;;;;;;4903305;28;45398;-61
2023/01/27 10:27:59;;;;;;;1.27;0.82;;;22.30;41.10;;;;;;4894133;28;45506;-61
2023/01/27 10:30:30;;;;;;;1.10;0.70;;;22.40;41.10;;;;;;4893261;28;46710;-62
2023/01/27 10:33:02;;;;;;;0.80;0.80;;;22.40;41.00;;;;;;4908430;28;45119;-61
2023/01/27 10:35:31;;;;;;;1.48;0.80;;;22.50;41.00;;;;;;4906348;28;45234;-64
2023/01/27 10:38:06;;;;;;;0.95;0.88;;;22.50;40.90;;;;;;4898550;28;45422;-62
2023/01/27 10:40:38;;;;;;;0.77;0.50;;;22.60;40.90;;;;;;4902851;28;45666;-58
2023/01/27 10:43:05;;;;;;;0.88;0.57;;;22.60;40.80;;;;;;4904771;28;45478;-62
2023/01/27 10:46:01;;;;;;;0.70;0.60;;;22.70;40.80;;;;;;4907108;28;45081;-64
2023/01/27 10:48:29;;;;;;;0.50;0.45;;;22.80;40.70;;;;;;4896641;28;45465;-60
2023/01/27 10:51:00;;;;;;;0.70;0.70;;;22.80;40.60;;;;;;4907584;28;45615;-61
2023/01/27 10:53:33;;;;;;;0.80;0.70;;;22.90;40.50;;;;;;4909760;28;44759;-58
2023/01/27 10:56:03;;;;;;;1.45;0.93;;;22.80;40.50;;;;;;4912604;28;45446;-63
2023/01/27 10:58:54;;;;;;;0.57;0.50;;;22.80;40.80;;;;;;4907471;28;45404;-63
2023/01/27 11:01:24;;;;;;;0.68;0.68;;;22.70;40.60;;;;;;4906517;28;45273;-60
2023/01/27 11:03:59;;;;;;;0.65;0.63;;;22.70;41.00;;;;;;4905648;28;45378;-59
2023/01/27 11:06:43;;;;;;;0.57;0.57;;;22.80;41.00;;;;;;4906551;28;46030;-63
2023/01/27 11:09:28;;;;;;;0.70;0.50;;;22.90;40.80;;;;;;4903688;28;45319;-64
2023/01/27 11:11:59;;;;;;;0.75;0.73;;;22.90;40.70;;;;;;4892991;28;45551;-59
2023/01/27 11:14:29;;;;;;;0.90;0.70;;;22.90;40.90;;;;;;4908872;28;46936;-58
2023/01/27 11:17:14;;;;;;;0.70;0.55;;;23.00;40.90;;;;;;4913099;28;45220;-61
2023/01/27 11:19:51;;;;;;;0.70;0.60;;;23.00;40.50;;;;;;4913114;28;45547;-63
2023/01/27 11:22:21;;;;;;;1.52;0.75;;;23.00;40.70;;;;;;4897100;28;46649;-60
2023/01/27 11:24:58;;;;;;;0.57;0.57;;;23.00;41.00;;;;;;4915273;28;44716;-62
2023/01/27 11:27:36;;;;;;;0.70;0.70;;;23.10;40.70;;;;;;4902083;28;45336;-62
2023/01/27 11:30:13;;;;;;;1.05;0.77;;;23.10;40.60;;;;;;4911592;28;45541;-60
2023/01/27 11:32:53;;;;;;;1.27;0.90;;;23.20;40.70;;;;;;4914591;28;45408;-60
2023/01/27 11:35:19;;;;;;;0.52;0.52;;;23.20;40.50;;;;;;4893675;28;45529;-65
2023/01/27 11:37:49;;;;;;;0.75;0.73;;;23.20;40.70;;;;;;4892838;28;45208;-62
2023/01/27 11:40:30;;;;;;;0.70;0.60;;;23.20;40.50;;;;;;4907598;28;45535;-61
2023/01/27 11:42:57;;;;;;;0.82;0.70;;;23.20;40.50;;;;;;4892560;28;46830;-61
2023/01/27 11:45:22;;;;;;;1.10;1.00;;;23.30;40.60;;;;;;4895690;28;44892;-57
2023/01/27 11:47:59;;;;;;;0.40;0.40;;;23.30;40.60;;;;;;4910824;28;45359;-62
2023/01/27 11:50:29;;;;;;;0.63;0.50;;;23.30;40.50;;;;;;4893341;28;45192;-62
2023/01/27 11:53:20;;;;;;;1.33;0.65;;;23.30;40.50;;;;;;4912115;28;45540;-62
2023/01/27 11:56:01;;;;;;;0.68;0.68;;;23.30;40.30;;;;;;4911425;28;45272;-61
2023/01/27 11:58:33;;;;;;;0.90;0.70;;;23.40;40.20;;;;;;4909436;28;44715;-62
2023/01/27 12:01:03;;;;;;;0.90;0.50;;;23.50;40.30;;;;;;4894807;28;45199;-62
2023/01/27 12:03:53;;;;;;;0.70;0.70;;;23.50;40.40;;;;;;4909354;28;46064;-61
2023/01/27 12:06:33;;;;;;;0.75;0.68;;;23.60;40.00;;;;;;4913058;28;46337;-61
2023/01/27 12:08:58;;;;;;;0.50;0.50;;;23.60;40.00;;;;;;4907978;28;45234;-65
2023/01/27 12:11:25;;;;;;;0.70;0.70;;;23.70;40.30;;;;;;4911157;28;45482;-59
2023/01/27 12:13:55;;;;;;;0.70;0.70;;;23.70;40.20;;;;;;4907108;28;45323;-59
2023/01/27 12:16:33;;;;;;;0.57;0.57;;;23.70;40.20;;;;;;4895843;28;45318;-57
2023/01/27 12:19:01;;;;;;;0.73;0.70;;;23.80;40.10;;;;;;4912723;28;45012;-59
2023/01/27 12:21:38;;;;;;;0.60;0.60;;;23.80;40.10;;;;;;4912814;28;45511;-60
2023/01/27 12:24:04;;;;;;;0.70;0.60;;;23.80;40.00;;;;;;4913614;28;45298;-59
2023/01/27 12:26:35;;;;;;;1.00;0.65;;;23.90;40.10;;;;;;4912621;28;45163;-60
2023/01/27 12:29:06;;;;;;;0.82;0.70;;;23.90;40.10;;;;;;4913148;28;45273;-61
2023/01/27 12:31:32;;;;;;;1.00;0.80;;;23.90;40.10;;;;;;4911001;28;46069;-60
2023/01/27 12:34:06;;;;;;;1.05;0.90;;;24.00;40.20;;;;;;4910134;28;45444;-57
2023/01/27 12:36:36;;;;;;;0.45;0.45;;;24.00;39.90;;;;;;4914798;28;45796;-60
2023/01/27 12:39:02;;;;;;;0.90;0.70;;;24.00;40.00;;;;;;4911619;28;45043;-58
2023/01/27 12:41:30;;;;;;;1.00;0.80;;;24.10;40.10;;;;;;4909928;28;46195;-57
2023/01/27 12:44:12;;;;;;;0.50;0.50;;;24.10;40.00;;;;;;4913722;28;45302;-61
2023/01/27 12:46:38;;;;;;;0.80;0.60;;;24.10;40.00;;;;;;4911928;28;45197;-62
2023/01/27 12:49:12;;;;;;;1.10;0.82;;;24.10;40.00;;;;;;4909222;28;45189;-60
2023/01/27 12:51:39;;;;;;;0.93;0.73;;;24.10;39.60;;;;;;4910395;28;45420;-60
2023/01/27 12:54:24;;;;;;;0.80;0.80;;;24.00;40.10;;;;;;4914655;28;45953;-61
2023/01/27 12:56:51;;;;;;;0.90;0.75;;;24.00;40.00;;;;;;4898548;28;44701;-61
2023/01/27 12:59:17;;;;;;;1.45;0.75;;;23.90;40.10;;;;;;4914213;28;44674;-59
2023/01/27 13:01:43;;;;;;;0.80;0.80;;;24.00;40.30;;;;;;4911377;28;46145;-60
2023/01/27 13:04:15;;;;;;;0.77;0.68;;;24.00;40.20;;;;;;4916128;28;46361;-61
2023/01/27 13:06:49;;;;;;;1.08;0.80;;;24.00;40.20;;;;;;4912463;28;45302;-61
2023/01/27 13:09:28;;;;;;;1.30;1.10;;;24.10;40.20;;;;;;4912051;28;45143;-60
2023/01/27 13:11:58;;;;;;;1.08;0.77;;;24.10;40.20;;;;;;4894404;28;45419;-58
2023/01/27 13:14:26;;;;;;;0.93;0.80;;;24.20;40.20;;;;;;4919469;28;46552;-61
2023/01/27 13:16:53;;;;;;;1.17;0.70;;;24.20;40.20;;;;;;4899799;28;46186;-61
2023/01/27 13:19:19;;;;;;;1.08;0.85;;;24.30;40.10;;;;;;4908781;28;45238;-61
2023/01/27 13:21:47;;;;;;;1.05;0.80;;;24.20;40.10;;;;;;4910839;28;44786;-61
2023/01/27 13:24:18;;;;;;;2.05;0.90;;;24.30;40.10;;;;;;4918371;28;46733;-60
2023/01/27 13:26:43;;;;;;;0.95;0.80;;;24.30;40.10;;;;;;4910785;28;45277;-60
2023/01/27 13:29:09;;;;;;;1.08;0.98;;;24.30;40.10;;;;;;4912410;28;44960;-61
2023/01/27 13:31:53;;;;;;;0.85;0.80;;;24.30;40.20;;;;;;4907048;28;45112;-62
2023/01/27 13:34:44;;;;;;;0.57;0.52;;;24.30;40.50;;;;;;4895593;28;45263;-62
2023/01/27 13:37:47;;;;;;;0.90;0.80;;;24.30;39.90;;;;;;4911808;28;46549;-62
2023/01/27 13:40:16;;;;;;;1.35;1.00;;;24.30;39.80;;;;;;4905704;28;45425;-63
2023/01/27 13:42:50;;;;;;;1.65;1.20;;;24.30;40.10;;;;;;4910434;28;45301;-62
2023/01/27 13:45:23;;;;;;;0.80;0.80;;;24.20;40.00;;;;;;4909354;28;45340;-60
2023/01/27 13:47:57;;;;;;;1.35;1.02;;;24.10;40.00;;;;;;4909988;28;45234;-67
2023/01/27 13:50:30;;;;;;;1.35;0.80;;;24.00;40.00;;;;;;4910327;28;45313;-62
2023/01/27 13:52:56;;;;;;;1.95;1.30;;;23.90;40.10;;;;;;4901331;28;46177;-63
2023/01/27 13:56:00;;;;;;;1.90;1.15;;;23.80;40.40;;;;;;4912873;28;46254;-62
2023/01/27 13:58:44;;;;;;;2.45;1.70;;;23.70;40.20;;;;;;4908153;28;45330;-61
2023/01/27 14:01:15;;;;;;;3.17;1.48;;;23.50;40.50;;;;;;4907996;28;46032;-61
2023/01/27 14:04:06;;;;;;;1.52;1.30;;;23.40;40.80;;;;;;4911482;28;45326;-61
2023/01/27 14:06:59;;;;;;;2.92;1.85;;;23.30;40.90;;;;;;4911001;28;45371;-62
2023/01/27 14:09:40;;;;;;;2.50;1.90;;;23.20;40.90;;;;;;4891061;28;44781;-61
2023/01/27 14:12:17;;;;;;;1.50;1.40;;;23.00;41.10;;;;;;4899030;28;45666;-63
2023/01/27 14:14:49;;;;;;;2.53;1.80;;;23.00;41.30;;;;;;4911564;28;45257;-64
2023/01/27 14:17:27;;;;;;;2.85;1.95;;;22.90;41.40;;;;;;4905438;28;46736;-67
2023/01/27 14:20:23;;;;;;;2.25;1.63;;;22.80;41.40;;;;;;4903360;28;46844;-63
2023/01/27 14:22:51;;;;;;;2.70;1.95;;;22.60;41.50;;;;;;4905188;28;46205;-66
2023/01/27 14:25:42;;;;;;;2.50;1.60;;;22.60;41.80;;;;;;4905557;28;45670;-61
2023/01/27 14:28:28;;;;;;;3.65;2.08;;;22.40;41.80;;;;;;4903859;28;45400;-62
2023/01/27 14:30:56;;;;;;;3.03;1.80;;;22.30;42.00;;;;;;4905592;28;45350;-62
2023/01/27 14:33:38;;;;;;;1.92;1.48;;;22.20;42.00;;;;;;4905645;28;45683;-64
2023/01/27 14:36:06;;;;;;;2.08;1.45;;;22.20;42.20;;;;;;4910884;28;45938;-62
2023/01/27 14:38:42;;;;;;;3.70;1.60;;;22.10;42.30;;;;;;4898583;28;45494;-62
2023/01/27 14:41:43;;;;;;;3.10;1.80;;;22.00;42.30;;;;;;4907555;28;46275;-61
2023/01/27 14:44:28;;;;;;;2.15;1.50;;;22.00;42.50;;;;;;4906135;28;44981;-61
2023/01/27 14:46:58;;;;;;;2.15;1.48;;;21.90;42.50;;;;;;4912971;28;45287;-60
2023/01/27 14:49:58;;;;;;;1.67;1.30;;;21.80;42.50;;;;;;4915393;28;45995;-60
2023/01/27 14:52:48;;;;;;;2.03;1.63;;;21.80;42.60;;;;;;4887277;28;45378;-61
2023/01/27 14:55:36;;;;;;;2.75;1.92;;;21.70;42.70;;;;;;4896284;28;46043;-61
2023/01/27 14:58:09;;;;;;;2.15;1.60;;;21.70;42.70;;;;;;4908065;28;45537;-58
2023/01/27 15:01:00;;;;;;;2.90;1.50;;;21.60;42.70;;;;;;4916106;28;45986;-61
2023/01/27 15:04:04;;;;;;;2.30;1.48;;;21.60;42.80;;;;;;4864079;28;45866;-61
2023/01/27 15:06:54;;;;;;;3.17;1.60;;;21.50;42.90;;;;;;4907491;28;45581;-61
2023/01/27 15:09:39;;;;;;;2.90;1.73;;;21.50;43.00;;;;;;4893280;28;44969;-62
2023/01/27 15:12:11;;;;;;;2.63;1.77;;;21.40;43.20;;;;;;4910094;28;45650;-61
2023/01/27 15:15:07;;;;;;;3.22;1.90;;;21.30;43.20;;;;;;4901855;28;46011;-62
2023/01/27 15:17:54;;;;;;;2.75;1.80;;;21.30;43.30;;;;;;4907790;28;45538;-60
2023/01/27 15:20:33;;;;;;;4.18;1.90;;;21.20;43.30;;;;;;4907570;28;45847;-59
2023/01/27 15:23:11;;;;;;;2.42;1.40;;;21.10;43.30;;;;;;4915583;28;46812;-61
2023/01/27 15:25:37;;;;;;;2.25;1.40;;;21.10;43.40;;;;;;4908124;28;45586;-59
2023/01/27 15:28:03;;;;;;;2.22;1.48;;;21.00;43.90;;;;;;4916093;28;45973;-61
2023/01/27 15:30:37;;;;;;;2.97;1.70;;;21.00;43.50;;;;;;4919006;28;45289;-60
2023/01/27 15:33:33;;;;;;;2.95;1.45;;;20.90;43.50;;;;;;4914120;28;45519;-61
2023/01/27 15:36:27;;;;;;;2.78;1.55;;;20.90;43.70;;;;;;4918499;28;45257;-60
2023/01/27 15:39:08;;;;;;;2.75;1.73;;;20.80;43.80;;;;;;4910825;28;45565;-61
2023/01/27 15:41:35;;;;;;;3.42;1.80;;;20.80;43.70;;;;;;4913995;28;44715;-60
2023/01/27 15:44:17;;;;;;;1.98;1.70;;;20.70;43.70;;;;;;4907144;28;46465;-60
2023/01/27 15:46:47;;;;;;;2.53;1.70;;;20.70;43.80;;;;;;4908118;28;45530;-59
2023/01/27 15:49:20;;;;;;;2.63;1.92;;;20.60;43.80;;;;;;4906369;28;44781;-61
2023/01/27 15:51:45;;;;;;;;;;;20.60;43.90;;;;;;4909515;28;45507;-61
2023/01/27 15:54:16;;;;;;;2.63;1.73;;;20.50;44.10;;;;;;4907781;28;45045;-59
2023/01/27 15:56:49;;;;;;;2.15;1.48;;;20.50;44.00;;;;;;4899683;28;45018;-58
2023/01/27 15:59:25;;;;;;;1.83;1.53;;;20.50;44.00;;;;;;4879646;28;45199;-60
2023/01/27 16:02:16;;;;;;;2.45;1.80;;;20.40;44.10;;;;;;4910358;28;45895;-60
2023/01/27 16:04:41;;;;;;;3.58;2.25;;;20.40;44.30;;;;;;4907049;28;45097;-61
2023/01/27 16:07:21;;;;;;;3.13;2.10;;;20.30;44.10;;;;;;4893338;28;46136;-61
2023/01/27 16:09:47;;;;;;;2.30;1.60;;;20.30;44.20;;;;;;4904351;28;45085;-61
2023/01/27 16:12:22;;;;;;;2.25;1.50;;;20.20;44.20;;;;;;4891397;28;45258;-62
2023/01/27 16:14:48;;;;;;;3.42;2.15;;;20.20;44.40;;;;;;4888662;28;45521;-61
2023/01/27 16:17:16;;;;;;;3.95;1.92;;;20.10;44.30;;;;;;4881030;29;45270;-62
2023/01/27 16:19:46;;;;;;;2.80;1.88;;;20.10;44.40;;;;;;4905685;28;45334;-61
2023/01/27 16:22:13;;;;;;;2.05;1.55;;;20.10;44.40;;;;;;4907018;28;45557;-61
2023/01/27 16:25:00;;;;;;;2.58;1.70;;;20.00;44.40;;;;;;4889319;29;45401;-63
2023/01/27 16:27:58;;;;;;;3.40;1.85;;;20.00;44.50;;;;;;4886949;28;45495;-61
2023/01/27 16:30:36;;;;;;;2.90;2.00;;;20.00;44.50;;;;;;4890694;28;45529;-61
2023/01/27 16:33:19;;;;;;;3.17;1.90;;;19.90;44.40;;;;;;4906831;28;44949;-59
2023/01/27 16:35:49;;;;;;;2.97;1.92;;;19.90;44.70;;;;;;4885785;28;47730;-61
2023/01/27 16:38:23;;;;;;;3.75;2.13;;;19.80;44.70;;;;;;4910360;28;45428;-60
2023/01/27 16:40:51;;;;;;;2.95;2.03;;;19.80;44.70;;;;;;4891614;28;45312;-59
2023/01/27 16:43:24;;;;;;;2.20;1.65;;;19.70;44.70;;;;;;4902519;28;45431;-61
2023/01/27 16:45:51;;;;;;;3.08;2.08;;;19.60;44.70;;;;;;4887526;28;45208;-62
2023/01/27 16:48:27;;;;;;;4.43;2.25;;;19.60;44.70;;;;;;4905690;28;44971;-58
2023/01/27 16:50:53;;;;;;;3.70;2.17;;;19.60;44.70;;;;;;4890376;28;45792;-60
2023/01/27 16:53:21;;;;;;;3.08;1.98;;;19.50;44.80;;;;;;4888896;28;45485;-60
2023/01/27 16:56:06;;;;;;;3.75;2.13;;;19.40;44.80;;;;;;4891323;28;45558;-60
2023/01/27 16:58:33;;;;;;;4.10;2.17;;;19.40;45.00;;;;;;4888471;28;45241;-61
2023/01/27 17:00:59;;;;;;;2.60;1.90;;;19.30;45.00;;;;;;4887673;28;45595;-60
2023/01/27 17:03:36;;;;;;;3.08;2.42;;;19.30;45.00;;;;;;4902703;28;45845;-60
2023/01/27 17:06:03;;;;;;;3.30;2.08;;;19.20;45.10;;;;;;4905865;28;45568;-60
2023/01/27 17:08:35;;;;;;;3.22;1.92;;;19.20;45.10;;;;;;4906441;28;45945;-60
2023/01/27 17:11:24;;;;;;;3.22;1.88;;;19.20;45.10;;;;;;4892882;28;44886;-60
2023/01/27 17:13:58;;;;;;;4.32;2.72;;;19.10;45.20;;;;;;4889006;28;45592;-61
2023/01/27 17:16:35;;;;;;;3.95;2.50;;;19.10;45.30;;;;;;4909511;28;46352;-59
2023/01/27 17:19:09;;;;;;;3.20;2.20;;;19.00;45.30;;;;;;4908701;28;45345;-61